Предлагаем Вашему вниманию английскую версию страницы: AUTOTAF.ME 14444 - aviation weather forecast Split

AUTOTAF 14444 - авиапрогноз Split

Сегодня рассвет 04:51 UTC, восход солнца 05:20 UTC,
местный полдень 11:05 UTC, заход солнца 16:51 UTC,
наступление темноты 17:19 UTC.

Краткий прогноз 14444 на 9 часов

AUTOTAF.ME 14444 070500Z 0706/0715 04003MPS CAVOK    
  BECMG 0707/0709 VRB02MPS

Детальный прогноз 14444 на 24 часа

AUTOTAF.ME 14444 070500Z 0706/0806 04003MPS 9999 SKC TX09/0712Z TN04/0706Z  
  BECMG 0707/0709 VRB02MPS     
  BECMG 0719/0721 BKN065  
  FM080000 VRB02MPS 9999 VCSH OVC048CB  
  BECMG 0804/0806 OVC018CB

Подробный табличный прогноз

Время (UTC) miniAUTOTAF на 3 ч WX FZLVL
M AGL
ICE TURB Т
(°С)
Тd
(°С)
f(%) QNH
(гПа)
WIND/T
03 04003MPS 9999 SKC 1200 4 -2 67 1028 ...
06 04003MPS 9999 SKC 1200 4 -3 64 1027 ...
09 VRB02MPS 9999 SKC 1200 MOD SFC/FL30 7 -4 44 1026 ...
12 VRB02MPS 9999 SKC 1350 9 -2 49 1024 ...
15 VRB02MPS 9999 FEW340 1500 9 -0 53 1022 ...
18 VRB02MPS 9999 FEW330 1650 8 -1 55 1022 ...
21 VRB02MPS 9999 BKN065 1500 FBL FL70/FL90 6 -0 64 1022 ...
08.03.2021
00 VRB02MPS 9999 VCSH OVC048CB VCSH 1350 MOD FL110/FL120 5 -1 66 1021 ...
03 VRB02MPS 9999 VCSH OVC025CB VCSH 1350 MOD FL50/FL60 5 -1 66 1019 ...
06 VRB02MPS 9999 VCSH OVC018CB VCSH 1350 MOD FL50/FL190 6 -1 61 1018 ...
09 VRB02MPS 9999 VCSH OVC018CB VCSH 1350 MOD FL190/FL200 8 -3 46 1018 ...
12 VRB02MPS 9999 VCSH OVC018CB VCSH 1350 MOD FL50/FL190 MOD SFC/FL30 10 0 52 1018 ...
15 VRB02MPS 9999 VCSH BKN017CB VCSH 1500 MOD FL50/FL190 MOD SFC/FL30 10 3 59 1017 ...
18 VRB02MPS 9999 VCSH BKN010CB VCSH 1500 MOD FL50/FL190 10 4 67 1018 ...
21 VRB02MPS 9999 VCSH BKN010CB VCSH 1350 MOD FL170/FL190 8 2 69 1018 ...


Широта 43.5°, долгота 16.3°, высота 21 м абс.
Средняя высота рельефа местности 238 м абс.
Прогнозы обновляются четыре раза в сутки: в 02, 08, 14, 20 ч всемирного времени.


Выбрать прогноз по другой модели Split
Онлайн-сводка гроз по Split (для РФ и ближнего зарубежья)
Карта фактических гроз в окрестностях Split
Динамические прогностические карты (ventusky.com)
Прогностическая карта высоты нижней границы облаков по Split (windy.com)
Выбрать другой город

Прогноз предназначен для личного научно-познавательного использования частными лицами
и не предназначен для принятия важных решений и выполнения реальных полётов воздушных судов

При копировании или ином использовании любых материалов данного сайта ссылка на © meteocenter.asia обязательна.

0.69/1.1